首页
METAR-TAF:

METAR-TAF

机场 :

馬紹爾群島國際機場

馬久羅, 馬紹爾群島

纬度: 07-04N, 经度: 171-17E, 海拔: 2米

当前天气观测

该预报发布于4小时和28分钟前的23:51 UTC
风速4节,风向西转西北
温度 30°C
湿度 75%
气压 1011 hPa
能見度: 24.1公里
少量云层高于1500英尺
散云层高于5000英尺
多云层高于30000英尺

METAR: PKMJ 222351Z 30004KT 15SM FEW015 SCT050 BKN300 30/25 A2985 RMK LAST

时间: 16:19 (04:19 UTC)

预报

该预报发布于4小时和59分钟前的23:20 UTC
预报有效从23日的 00点(UTC)到 23日的 24点(UTC)
风速5节,风向
能見度: 10公里
少量云层高于1600英尺
少量云层高于13000英尺

TAF: PKMJ 222320Z 2300/2324 01005KT P6SM FEW016 FEW130

超过4000个机场的气象观测和天气预报(METAR&TAF报告)。

可查询的气象台以黄色和红色小点在地图上表示。

将鼠标移到小点上方,可查看气象台名称。

然后点击查看天气观测和预报。

如需切换地图:点击带黑十字的绿色按钮放大地图;点击带横线的绿色按钮缩小地图;或者点击绿色箭头查看邻近地区的地图。


METAR-TAF: